Time;durP1;ratioP1;P1;durP2;ratioP2;P2;SDS_P1;SDS_P2;PMS_P1;PMS_P2;Temp;Humidity;BMP_temperature;BMP_pressure;BME280_temperature;BME280_humidity;BME280_pressure;Samples;Min_cycle;Max_cycle;Signal;HPM_P1;HPM_P2
2022/01/25 00:10:38;;;;;;;48.35;19.27;;;;;;;-0.32;96.91;97176.06;5026221;28;20120;-48
2022/01/25 00:25:10;;;;;;;48.35;18.88;;;;;;;-0.57;100.00;97182.38;5016258;28;20502;-44
2022/01/25 00:27:38;;;;;;;49.70;19.17;;;;;;;-0.31;97.72;97175.81;5021152;28;20049;-45
2022/01/25 00:30:25;;;;;;;47.63;18.17;;;;;;;-0.30;97.26;97181.94;5034229;28;20235;-44
2022/01/25 00:32:49;;;;;;;48.53;19.02;;;;;;;-0.35;97.12;97177.31;5014989;28;20076;-46
2022/01/25 00:35:16;;;;;;;59.03;20.38;;;;;;;-0.29;96.07;97172.94;5033926;28;20095;-44
2022/01/25 00:37:43;;;;;;;50.50;20.52;;;;;;;-0.08;95.25;97171.50;5034102;28;20495;-46
2022/01/25 00:40:10;;;;;;;46.03;17.67;;;;;;;-1.30;100.00;97170.25;5033387;28;20517;-44
2022/01/25 00:42:37;;;;;;;50.28;18.45;;;;;;;-1.55;100.00;97175.69;5016683;28;20041;-44
2022/01/25 00:45:05;;;;;;;43.30;17.95;;;;;;;-1.82;100.00;97154.00;5034166;28;20099;-45
2022/01/25 00:47:32;;;;;;;50.03;18.52;;;;;;;-1.79;100.00;97171.28;5033883;28;20045;-44
2022/01/25 00:49:59;;;;;;;49.95;18.60;;;;;;;-1.68;100.00;97160.75;5015373;28;20129;-45
2022/01/25 00:55:05;;;;;;;43.53;18.23;;;;;;;-1.19;100.00;97172.13;5030117;28;20125;-45
2022/01/25 00:57:32;;;;;;;45.15;18.17;;;;;;;-0.47;100.00;97168.53;5033556;28;20068;-44
2022/01/25 00:59:59;;;;;;;49.70;19.02;;;;;;;-0.90;100.00;97164.34;5033809;28;20067;-44
2022/01/25 01:02:26;;;;;;;61.17;19.95;;;;;;;-0.88;100.00;97164.91;5025606;28;20088;-45
2022/01/25 01:04:53;;;;;;;49.05;18.40;;;;;;;-0.28;99.56;97164.69;5020341;28;20132;-44
2022/01/25 01:07:20;;;;;;;50.83;19.17;;;;;;;-0.09;97.84;97159.25;5033609;28;20395;-45
2022/01/25 01:09:50;;;;;;;46.88;18.98;;;;;;;-0.62;100.00;97160.19;5033088;28;20083;-46
2022/01/25 01:15:10;;;;;;;56.05;18.67;;;;;;;-0.88;100.00;97167.56;5027506;28;20045;-45
2022/01/25 01:45:43;;;;;;;53.42;17.20;;;;;;;-0.07;95.55;97179.25;5019584;28;20074;-44
2022/01/25 01:48:16;;;;;;;65.95;17.90;;;;;;;-0.61;98.03;97188.41;5031622;28;20490;-46
2022/01/25 01:50:43;;;;;;;73.85;18.73;;;;;;;-0.32;96.03;97179.50;5032867;28;20133;-43
2022/01/25 01:53:09;;;;;;;51.70;18.95;;;;;;;-0.26;95.63;97175.09;5022916;28;20129;-47
2022/01/25 01:55:37;;;;;;;67.38;18.58;;;;;;;-0.30;96.51;97176.59;5022071;28;20079;-45
2022/01/25 01:58:04;;;;;;;77.93;17.95;;;;;;;-0.20;95.61;97168.84;5033202;28;20045;-44
2022/01/25 02:00:36;;;;;;;55.88;18.13;;;;;;;-0.26;95.77;97162.63;5032138;28;20065;-47
2022/01/25 02:03:04;;;;;;;48.65;17.05;;;;;;;-0.28;96.41;97178.00;5015197;28;20064;-45
2022/01/25 02:05:31;;;;;;;58.63;17.83;;;;;;;-0.06;95.15;97172.91;5032226;28;20049;-45
2022/01/25 02:08:00;;;;;;;61.80;18.27;;;;;;;-0.14;95.00;97177.75;5032693;28;20045;-45
2022/01/25 02:10:28;;;;;;;64.75;20.17;;;;;;;-0.25;96.00;97172.22;5030327;28;20049;-44
2022/01/25 02:12:56;;;;;;;55.88;18.38;;;;;;;-0.27;96.64;97173.47;5031828;28;20076;-45
2022/01/25 02:15:28;;;;;;;56.17;16.92;;;;;;;-0.69;98.27;97175.44;5031241;28;20136;-46
2022/01/25 02:23:18;;;;;;;58.28;16.02;;;;;;;-1.90;100.00;97168.34;5001514;28;20439;-44
2022/01/25 02:25:46;;;;;;;48.28;15.13;;;;;;;-1.45;100.00;97153.91;5031519;28;20412;-46
2022/01/25 02:28:13;;;;;;;73.50;16.35;;;;;;;-0.90;100.00;97156.38;4995032;28;20117;-44
2022/01/25 02:30:41;;;;;;;52.95;15.77;;;;;;;-1.60;100.00;97145.53;5030739;28;20042;-45
2022/01/25 02:33:08;;;;;;;55.97;15.45;;;;;;;-1.68;100.00;97155.44;5023171;28;20049;-44
2022/01/25 02:35:36;;;;;;;59.33;16.02;;;;;;;-1.45;100.00;97151.25;5031686;28;20057;-46
2022/01/25 02:38:03;;;;;;;70.03;18.30;;;;;;;-1.48;100.00;97151.72;5031481;28;20124;-47
2022/01/25 02:40:30;;;;;;;57.38;17.55;;;;;;;-1.27;100.00;97148.56;5025259;28;20034;-46
2022/01/25 02:42:57;;;;;;;61.88;17.20;;;;;;;-1.23;100.00;97143.59;5012961;28;20129;-46
2022/01/25 02:45:31;;;;;;;64.95;17.75;;;;;;;-0.61;100.00;97149.34;5027922;28;20051;-47
2022/01/25 02:50:44;;;;;;;58.67;16.58;;;;;;;-1.13;100.00;97127.91;5014179;28;20491;-45
2022/01/25 02:53:11;;;;;;;51.97;15.23;;;;;;;-1.95;100.00;97141.69;5013837;28;20151;-44
2022/01/25 02:55:39;;;;;;;59.97;15.55;;;;;;;-2.05;100.00;97148.53;5031491;28;20402;-43
2022/01/25 02:58:07;;;;;;;75.53;15.68;;;;;;;-2.09;100.00;97142.88;5031658;28;20380;-44
2022/01/25 03:00:35;;;;;;;66.43;14.55;;;;;;;-2.43;100.00;97123.06;5027858;28;20037;-45
2022/01/25 03:03:03;;;;;;;70.53;14.80;;;;;;;-2.24;100.00;97151.22;5017281;28;20080;-44
2022/01/25 03:05:30;;;;;;;54.85;13.75;;;;;;;-2.27;100.00;97149.00;5031195;28;20064;-45
2022/01/25 03:07:57;;;;;;;63.00;14.60;;;;;;;-2.32;100.00;97151.50;5031579;28;20046;-44
2022/01/25 03:10:45;;;;;;;61.85;14.65;;;;;;;-2.30;100.00;97154.75;5030389;28;20048;-44
2022/01/25 03:13:36;;;;;;;67.07;13.88;;;;;;;-2.37;100.00;97148.72;5031274;28;20132;-44
2022/01/25 03:16:16;;;;;;;52.53;14.65;;;;;;;-2.30;100.00;97148.63;5012854;28;20083;-44
2022/01/25 03:18:46;;;;;;;58.53;15.98;;;;;;;-1.66;100.00;97150.72;5025020;28;20124;-45
2022/01/25 03:21:33;;;;;;;69.55;14.93;;;;;;;-2.35;100.00;97146.63;5013669;28;20037;-44
2022/01/25 03:24:01;;;;;;;48.10;12.93;;;;;;;-2.48;100.00;97142.28;5013545;28;20042;-43
2022/01/25 03:26:28;;;;;;;44.70;12.93;;;;;;;-2.55;100.00;97152.13;5018786;28;20049;-43
2022/01/25 03:28:56;;;;;;;47.90;14.60;;;;;;;-2.52;100.00;97149.03;5051646;28;20075;-44
2022/01/25 03:31:24;;;;;;;47.33;13.35;;;;;;;-2.39;100.00;97162.16;5028094;28;20039;-45
2022/01/25 03:33:51;;;;;;;46.85;13.40;;;;;;;-2.46;100.00;97150.81;5031674;28;20055;-44
2022/01/25 03:36:18;;;;;;;58.97;13.65;;;;;;;-2.36;100.00;97150.31;5034902;28;20049;-47
2022/01/25 03:38:46;;;;;;;43.63;15.48;;;;;;;-2.29;100.00;97150.25;5032203;28;20048;-45
2022/01/25 03:41:15;;;;;;;48.58;13.63;;;;;;;-2.29;100.00;97145.75;5019747;28;20037;-45
2022/01/25 03:43:50;;;;;;;43.40;13.35;;;;;;;-2.38;100.00;97147.06;5035093;28;20056;-44
2022/01/25 03:46:27;;;;;;;38.13;13.05;;;;;;;-2.60;100.00;97146.66;5019337;28;20483;-46
2022/01/25 03:51:40;;;;;;;39.00;13.30;;;;;;;-2.21;100.00;97148.13;5035057;28;20049;-44
2022/01/25 03:54:07;;;;;;;39.17;13.10;;;;;;;-2.45;100.00;97141.03;5019554;28;20144;-44
2022/01/25 03:56:35;;;;;;;37.38;13.65;;;;;;;-2.33;100.00;97143.78;5016939;28;20055;-45
2022/01/25 03:59:04;;;;;;;37.83;13.65;;;;;;;-2.43;100.00;97138.97;5034766;28;20116;-44
2022/01/25 04:01:32;;;;;;;39.10;13.60;;;;;;;-2.35;100.00;97146.63;5024733;28;20071;-43
2022/01/25 04:04:03;;;;;;;37.38;13.93;;;;;;;-1.70;100.00;97138.91;5034631;28;20103;-45
2022/01/25 04:06:32;;;;;;;40.53;13.32;;;;;;;-2.06;100.00;97138.97;5020305;28;20076;-45
2022/01/25 04:09:00;;;;;;;45.78;14.63;;;;;;;-2.27;100.00;97127.78;5034741;28;20046;-43
2022/01/25 04:11:27;;;;;;;40.22;13.88;;;;;;;-1.82;100.00;97135.44;5033687;28;20038;-43
2022/01/25 04:13:57;;;;;;;39.00;13.88;;;;;;;-2.09;100.00;97134.13;5034382;28;20053;-43
2022/01/25 04:16:31;;;;;;;39.75;13.38;;;;;;;-1.39;100.00;97134.44;5033693;28;20055;-46
2022/01/25 04:26:49;;;;;;;37.92;13.70;;;;;;;-1.36;100.00;97123.34;5004801;28;19932;-45
2022/01/25 04:29:21;;;;;;;36.40;13.60;;;;;;;-1.44;100.00;97127.13;5034182;28;20045;-43
2022/01/25 04:31:48;;;;;;;33.65;12.18;;;;;;;-1.33;100.00;97125.56;5016086;28;20067;-45
2022/01/25 04:48:53;;;;;;;36.03;12.30;;;;;;;-1.99;100.00;97123.78;5023018;28;20072;-44
2022/01/25 04:53:43;;;;;;;35.10;12.68;;;;;;;-1.24;100.00;97110.09;5022003;28;20046;-44
2022/01/25 04:56:25;;;;;;;41.28;13.07;;;;;;;-1.35;100.00;97108.25;5028022;28;20602;-45
2022/01/25 04:59:02;;;;;;;46.20;13.68;;;;;;;-1.13;99.87;97101.34;5033607;28;20041;-44
2022/01/25 05:01:29;;;;;;;36.50;12.43;;;;;;;-1.48;100.00;97106.59;5025323;28;20052;-44
2022/01/25 05:04:04;;;;;;;35.90;12.50;;;;;;;-1.14;100.00;97105.03;5016943;28;20045;-43
2022/01/25 05:06:32;;;;;;;38.22;12.63;;;;;;;-1.25;100.00;97097.88;5041045;28;20037;-43
2022/01/25 05:09:34;;;;;;;37.30;11.52;;;;;;;-2.07;100.00;97097.59;5053564;28;20132;-43
2022/01/25 05:11:52;;;;;;;34.13;12.75;;;;;;;-1.33;100.00;97101.66;5020552;28;20050;-43
2022/01/25 05:14:25;;;;;;;32.58;12.13;;;;;;;-1.93;100.00;97104.34;5019961;28;20046;-46
2022/01/25 05:16:56;;;;;;;31.92;11.85;;;;;;;-2.17;100.00;97090.16;5033440;28;20061;-43
2022/01/25 05:22:20;;;;;;;29.58;10.43;;;;;;;-2.17;100.00;97106.88;5032513;28;20060;-43
2022/01/25 05:24:49;;;;;;;26.73;10.15;;;;;;;-1.80;100.00;97106.00;5027908;28;20045;-45
2022/01/25 05:27:18;;;;;;;32.00;11.52;;;;;;;-1.68;100.00;97102.38;5033291;28;20038;-43
2022/01/25 05:29:45;;;;;;;36.65;11.82;;;;;;;-1.29;100.00;97104.69;5034135;28;20057;-43
2022/01/25 05:32:13;;;;;;;31.58;12.15;;;;;;;-1.28;100.00;97104.44;5028398;28;20059;-44
2022/01/25 05:34:40;;;;;;;33.42;12.52;;;;;;;-1.21;99.01;97105.13;5015984;28;20045;-44
2022/01/25 05:37:08;;;;;;;32.15;11.52;;;;;;;-1.21;98.37;97105.13;5017303;28;20038;-47
2022/01/25 05:39:37;;;;;;;35.35;13.35;;;;;;;-1.37;100.00;97105.78;5014124;28;20132;-45
2022/01/25 05:42:30;;;;;;;32.78;12.88;;;;;;;-1.31;100.00;97107.53;5033067;28;20099;-44
2022/01/25 05:47:30;;;;;;;25.83;11.13;;;;;;;-1.38;100.00;97120.13;5033323;28;20127;-45
2022/01/25 05:49:59;;;;;;;24.67;9.77;;;;;;;-1.23;98.74;97107.22;5018855;28;20050;-43
2022/01/25 05:52:26;;;;;;;30.17;11.43;;;;;;;-1.08;97.84;97112.09;5013812;28;20377;-44
2022/01/25 05:54:53;;;;;;;30.27;12.15;;;;;;;-1.24;98.11;97115.41;5032965;28;20145;-44
2022/01/25 05:57:20;;;;;;;36.35;11.32;;;;;;;-1.16;97.67;97111.63;5033453;28;20041;-44
2022/01/25 05:59:47;;;;;;;34.20;12.07;;;;;;;-1.00;96.86;97113.63;5034155;28;20080;-45
2022/01/25 06:02:18;;;;;;;32.00;11.32;;;;;;;-1.01;96.85;97112.81;5016869;28;20038;-44
2022/01/25 06:04:46;;;;;;;32.25;10.63;;;;;;;-1.07;97.66;97107.56;5023118;28;20037;-47
2022/01/25 06:07:13;;;;;;;35.75;12.07;;;;;;;-1.22;98.05;97108.84;5033940;28;20473;-44
2022/01/25 06:09:41;;;;;;;33.30;11.60;;;;;;;-1.23;98.05;97103.78;5026872;28;20042;-43
2022/01/25 06:12:10;;;;;;;33.17;12.15;;;;;;;-0.99;96.98;97101.94;5032627;28;20132;-44
2022/01/25 06:14:38;;;;;;;32.38;10.70;;;;;;;-0.92;96.39;97097.31;5014322;28;20519;-45
2022/01/25 06:17:05;;;;;;;33.67;11.27;;;;;;;-1.09;97.11;97093.75;5032457;28;20042;-43
2022/01/25 06:19:32;;;;;;;30.67;9.95;;;;;;;-1.30;98.06;97095.06;5031967;28;20132;-42
2022/01/25 06:21:59;;;;;;;41.63;12.15;;;;;;;-1.19;97.23;97103.06;5031166;28;20084;-44
2022/01/25 06:24:27;;;;;;;29.70;10.82;;;;;;;-1.07;96.83;97097.78;5028249;28;20045;-42
2022/01/25 06:26:54;;;;;;;31.38;12.13;;;;;;;-1.15;97.05;97092.00;5032562;28;20042;-45
2022/01/25 06:29:20;;;;;;;31.85;10.48;;;;;;;-1.16;96.46;97093.84;5032545;28;20041;-42
2022/01/25 06:31:48;;;;;;;34.83;12.25;;;;;;;-1.24;97.71;97088.84;5011357;28;20050;-42
2022/01/25 06:34:16;;;;;;;30.77;11.90;;;;;;;-1.03;96.81;97090.16;5014526;28;20051;-43
2022/01/25 06:36:45;;;;;;;36.13;12.45;;;;;;;-0.89;96.17;97096.88;5033115;28;20244;-43
2022/01/25 06:39:12;;;;;;;33.70;12.27;;;;;;;-0.90;96.36;97095.25;5025320;28;20041;-43
2022/01/25 06:41:39;;;;;;;29.38;12.02;;;;;;;-1.33;99.33;97098.19;5032173;28;20091;-44
2022/01/25 06:44:06;;;;;;;29.38;10.98;;;;;;;-1.37;99.83;97094.38;5030978;28;20071;-42
2022/01/25 06:46:34;;;;;;;35.72;12.25;;;;;;;-1.71;100.00;97089.53;5032332;28;20049;-45
2022/01/25 06:49:01;;;;;;;33.95;12.60;;;;;;;-1.29;100.00;97104.69;5010699;28;20129;-48
2022/01/25 06:51:29;;;;;;;29.92;10.48;;;;;;;-1.78;100.00;97114.56;5028643;28;20497;-44
2022/01/25 06:53:56;;;;;;;38.50;12.57;;;;;;;-1.85;100.00;97105.84;5029391;28;20055;-45
2022/01/25 06:56:23;;;;;;;33.92;11.35;;;;;;;-1.49;100.00;97115.59;5032178;28;20049;-44
2022/01/25 06:58:50;;;;;;;33.67;12.63;;;;;;;-1.42;100.00;97111.00;5032436;28;20123;-46
2022/01/25 07:01:17;;;;;;;39.70;13.57;;;;;;;-1.32;99.47;97116.56;5028725;28;20477;-47
2022/01/25 07:03:45;;;;;;;43.22;13.77;;;;;;;-1.20;98.60;97120.06;5031559;28;20574;-45
2022/01/25 07:06:13;;;;;;;36.78;13.10;;;;;;;-1.11;99.92;97125.03;5031413;28;20049;-47
2022/01/25 07:08:44;;;;;;;39.10;12.27;;;;;;;-0.85;97.71;97124.59;5030633;28;20470;-44
2022/01/25 07:11:12;;;;;;;37.03;13.73;;;;;;;-1.35;99.03;97135.59;5013850;28;20041;-45
2022/01/25 07:13:39;;;;;;;64.57;14.30;;;;;;;-1.25;98.74;97125.22;5031163;28;20041;-46
2022/01/25 07:16:06;;;;;;;44.80;12.68;;;;;;;-1.31;98.61;97127.97;5030850;28;20042;-43
2022/01/25 07:18:33;;;;;;;40.80;13.43;;;;;;;-1.10;98.04;97132.78;5029268;28;20103;-44
2022/01/25 07:21:00;;;;;;;44.50;12.73;;;;;;;-1.34;98.98;97129.22;5031809;28;20128;-44
2022/01/25 07:23:28;;;;;;;43.45;13.75;;;;;;;-1.31;99.23;97134.09;4994551;28;20050;-46
2022/01/25 07:25:54;;;;;;;43.03;14.30;;;;;;;-1.10;98.45;97134.63;5013317;28;20073;-42
2022/01/25 07:28:22;;;;;;;49.97;14.48;;;;;;;-1.01;97.78;97130.56;5013679;28;20049;-44
2022/01/25 07:30:49;;;;;;;44.50;13.57;;;;;;;-0.75;97.00;97134.63;5006449;28;20037;-44
2022/01/25 07:33:21;;;;;;;41.17;13.50;;;;;;;-0.71;96.83;97118.03;5029806;28;20460;-45
2022/01/25 07:35:48;;;;;;;42.75;14.85;;;;;;;-0.76;96.42;97133.84;5031340;28;20447;-43
2022/01/25 07:38:22;;;;;;;37.72;13.15;;;;;;;-0.76;96.25;97128.53;5031660;28;20136;-43
2022/01/25 07:40:50;;;;;;;48.20;14.73;;;;;;;-1.14;98.18;97128.94;5020612;28;20045;-47
2022/01/25 07:43:16;;;;;;;38.38;13.68;;;;;;;-1.07;98.18;97127.00;5012095;28;20046;-43
2022/01/25 07:45:59;;;;;;;47.47;14.80;;;;;;;-1.14;99.63;97128.13;5016700;28;20049;-42
2022/01/25 07:48:26;;;;;;;44.58;16.77;;;;;;;-1.16;99.00;97130.22;5027235;28;20049;-46
2022/01/25 07:51:01;;;;;;;46.35;17.67;;;;;;;-1.05;98.95;97127.56;5031295;28;20073;-43
2022/01/25 07:53:28;;;;;;;49.08;17.33;;;;;;;-1.06;98.41;97128.63;5030027;28;20129;-45
2022/01/25 07:55:55;;;;;;;46.22;17.15;;;;;;;-1.07;98.71;97126.16;5030702;28;20041;-44
2022/01/25 07:58:22;;;;;;;50.72;17.27;;;;;;;-1.18;98.66;97131.22;4997584;28;20672;-43
2022/01/25 08:00:49;;;;;;;44.53;15.75;;;;;;;-1.20;98.48;97129.88;5011692;28;20057;-45
2022/01/25 08:03:18;;;;;;;39.38;15.05;;;;;;;-1.32;98.79;97129.81;4998666;28;20049;-46
2022/01/25 08:06:02;;;;;;;42.13;15.23;;;;;;;-1.41;98.79;97141.81;5000101;28;20057;-46
2022/01/25 08:08:55;;;;;;;40.40;14.45;;;;;;;-1.36;98.22;97146.44;4991738;28;20185;-44
2022/01/25 08:11:37;;;;;;;41.53;15.68;;;;;;;-1.55;99.20;97145.69;4987753;28;20050;-45
2022/01/25 08:14:16;;;;;;;41.42;15.60;;;;;;;-1.78;100.00;97149.84;4990266;28;20081;-43
2022/01/25 08:16:48;;;;;;;41.03;16.55;;;;;;;-1.47;98.82;97145.34;4990674;28;20058;-44
2022/01/25 08:19:21;;;;;;;38.92;15.15;;;;;;;-1.80;98.99;97149.25;4964785;28;20061;-43
2022/01/25 08:22:02;;;;;;;38.55;15.88;;;;;;;-1.51;99.71;97147.66;4911893;29;20170;-43
2022/01/25 08:24:40;;;;;;;42.10;15.35;;;;;;;-1.39;98.88;97145.06;4916641;29;20048;-43
2022/01/25 08:27:24;;;;;;;45.47;15.73;;;;;;;-1.16;97.55;97151.47;4916035;29;20032;-44
2022/01/25 08:30:06;;;;;;;39.92;14.93;;;;;;;-0.81;95.98;97151.53;4905213;29;20481;-43
2022/01/25 08:32:46;;;;;;;44.05;17.10;;;;;;;-0.75;94.52;97142.63;4909493;29;20422;-48
2022/01/25 08:35:21;;;;;;;40.80;16.00;;;;;;;-1.88;98.89;97144.28;4904938;29;20417;-44
2022/01/25 08:38:08;;;;;;;39.38;16.58;;;;;;;-1.23;99.17;97139.09;4863432;29;20084;-43
2022/01/25 08:40:49;;;;;;;45.10;17.75;;;;;;;-1.45;99.45;97132.69;4869169;29;20144;-45
2022/01/25 08:43:19;;;;;;;41.67;15.35;;;;;;;-1.14;97.85;97128.94;4874892;29;20053;-44
2022/01/25 08:46:03;;;;;;;48.33;18.65;;;;;;;-0.79;95.98;97128.97;4878523;29;20080;-43
2022/01/25 08:48:48;;;;;;;42.05;18.25;;;;;;;-0.82;95.57;97132.09;4877107;29;20056;-45
2022/01/25 08:51:38;;;;;;;45.53;17.55;;;;;;;-1.04;96.26;97133.69;4859734;29;20049;-42
2022/01/25 08:54:29;;;;;;;49.40;18.83;;;;;;;-0.93;96.18;97138.22;4841564;29;20065;-43
2022/01/25 08:57:10;;;;;;;44.78;17.92;;;;;;;-0.67;95.29;97141.47;4843585;29;20733;-44
2022/01/25 09:00:01;;;;;;;42.65;16.95;;;;;;;-0.98;95.81;97133.56;4831053;29;20144;-43
2022/01/25 09:02:28;;;;;;;43.85;17.83;;;;;;;-1.76;99.39;97137.16;4859300;29;20052;-45
2022/01/25 09:04:56;;;;;;;41.67;16.45;;;;;;;-1.93;100.00;97141.47;4859333;29;20504;-42
2022/01/25 09:07:22;;;;;;;42.95;18.08;;;;;;;-1.76;100.00;97131.84;4842302;29;20707;-42
2022/01/25 09:09:50;;;;;;;41.17;18.17;;;;;;;-1.49;99.43;97147.44;4858701;29;20057;-43
2022/01/25 09:12:16;;;;;;;44.45;17.55;;;;;;;-1.65;99.21;97147.03;4844441;29;20045;-43
2022/01/25 09:14:44;;;;;;;44.45;18.90;;;;;;;-0.90;97.24;97148.41;4872426;29;20106;-45
2022/01/25 09:17:11;;;;;;;45.17;19.88;;;;;;;-1.03;96.77;97143.28;4896588;29;20055;-46
2022/01/25 09:19:39;;;;;;;46.95;20.15;;;;;;;-1.48;99.79;97138.44;4929619;29;20055;-44
2022/01/25 09:22:08;;;;;;;46.17;19.02;;;;;;;-0.71;97.04;97143.78;4932784;29;20140;-44
2022/01/25 09:24:37;;;;;;;42.90;19.45;;;;;;;-1.10;96.72;97134.63;4934640;29;20058;-45
2022/01/25 09:27:07;;;;;;;41.05;19.27;;;;;;;-1.21;99.17;97144.16;4935335;28;20160;-45
2022/01/25 09:29:35;;;;;;;42.55;18.48;;;;;;;-1.56;98.90;97139.56;4970257;28;20136;-44
2022/01/25 09:32:03;;;;;;;40.08;18.38;;;;;;;-1.53;100.00;97143.59;4984192;28;20130;-44
2022/01/25 09:34:30;;;;;;;43.40;18.67;;;;;;;-1.05;98.38;97134.72;4994103;28;20500;-46
2022/01/25 09:36:57;;;;;;;41.92;18.55;;;;;;;-1.59;100.00;97150.63;5013080;28;20092;-45
2022/01/25 09:39:24;;;;;;;39.88;17.83;;;;;;;-1.74;100.00;97152.88;5033557;28;20132;-45
2022/01/25 09:41:53;;;;;;;45.95;21.23;;;;;;;-0.95;98.71;97146.41;5033734;28;20449;-46
2022/01/25 09:44:20;;;;;;;44.33;19.35;;;;;;;-0.97;97.66;97153.00;5017958;28;20122;-43
2022/01/25 09:46:47;;;;;;;41.28;18.73;;;;;;;-1.04;99.70;97153.13;5033932;28;20041;-44
2022/01/25 09:49:16;;;;;;;39.33;17.38;;;;;;;-0.38;95.56;97153.84;5033486;28;20048;-43
2022/01/25 09:51:44;;;;;;;34.08;18.10;;;;;;;-0.14;93.38;97156.47;5033340;28;20065;-44
2022/01/25 09:54:12;;;;;;;39.85;19.27;;;;;;;-0.30;92.92;97152.66;5032824;28;20047;-45
2022/01/25 09:56:39;;;;;;;37.40;18.13;;;;;;;-0.33;92.63;97153.94;5033926;28;20045;-44
2022/01/25 09:59:06;;;;;;;35.85;17.30;;;;;;;-0.10;91.94;97152.28;5031352;28;20045;-44
2022/01/25 10:01:36;;;;;;;34.22;17.02;;;;;;;-0.15;91.60;97144.22;5030268;28;20048;-46
2022/01/25 10:04:25;;;;;;;39.30;18.00;;;;;;;0.13;91.08;97151.44;5031341;28;20042;-42
2022/01/25 10:06:53;;;;;;;37.35;17.33;;;;;;;0.13;89.79;97146.94;5033070;28;20045;-45
2022/01/25 10:09:21;;;;;;;37.60;17.73;;;;;;;-0.63;91.65;97142.63;5015024;28;20049;-43
2022/01/25 10:11:49;;;;;;;33.25;16.02;;;;;;;-0.59;93.74;97143.78;5025754;28;20056;-43
2022/01/25 10:14:17;;;;;;;34.15;17.35;;;;;;;-0.21;91.75;97139.84;5015339;28;20375;-42
2022/01/25 10:16:52;;;;;;;39.47;19.63;;;;;;;-0.13;90.94;97147.44;5019321;28;20072;-41
2022/01/25 10:19:23;;;;;;;35.67;16.95;;;;;;;-0.04;91.24;97135.41;5030724;28;20049;-43
2022/01/25 10:21:51;;;;;;;35.42;17.20;;;;;;;-0.02;90.53;97138.66;5014190;28;20110;-47
2022/01/25 10:24:25;;;;;;;34.55;18.38;;;;;;;-0.27;91.89;97139.72;5025996;28;20569;-43
2022/01/25 10:26:51;;;;;;;33.92;16.13;;;;;;;-0.81;93.78;97131.09;5028578;28;20037;-43
2022/01/25 10:29:35;;;;;;;33.25;15.98;;;;;;;-0.78;93.92;97132.44;5032168;28;20053;-42
2022/01/25 10:32:08;;;;;;;29.40;15.50;;;;;;;-1.04;95.59;97133.69;5028458;28;20052;-43
2022/01/25 10:34:43;;;;;;;38.05;16.80;;;;;;;-0.78;95.31;97122.66;5032185;28;20041;-44
2022/01/25 10:37:14;;;;;;;31.35;16.08;;;;;;;-0.90;96.28;97131.66;5032011;28;20045;-44
2022/01/25 10:39:47;;;;;;;33.92;16.65;;;;;;;-1.02;96.87;97116.50;5027353;28;20525;-43
2022/01/25 10:42:29;;;;;;;30.98;15.02;;;;;;;-0.75;95.41;97126.66;5032402;28;20037;-43
2022/01/25 10:45:04;;;;;;;30.13;14.48;;;;;;;-1.00;96.07;97122.38;5025262;28;20053;-43
2022/01/25 10:47:45;;;;;;;29.27;16.15;;;;;;;-1.08;97.61;97113.94;5026032;28;20066;-47
2022/01/25 10:50:18;;;;;;;32.97;16.33;;;;;;;-0.71;96.83;97110.06;5029005;28;20045;-43
2022/01/25 10:52:46;;;;;;;32.75;15.73;;;;;;;-0.54;96.42;97109.34;5023620;28;20504;-46
2022/01/25 10:55:14;;;;;;;34.40;17.02;;;;;;;-0.51;96.33;97104.38;5012841;28;20615;-43
2022/01/25 10:57:41;;;;;;;33.05;16.13;;;;;;;-0.58;96.03;97100.22;5032278;28;20137;-43
2022/01/25 11:00:34;;;;;;;30.77;14.93;;;;;;;-0.76;97.36;97101.94;5032287;28;20123;-43
2022/01/25 11:03:03;;;;;;;28.65;14.30;;;;;;;-0.54;96.15;97093.41;5029135;28;20045;-42
2022/01/25 11:05:38;;;;;;;30.67;16.15;;;;;;;-0.19;95.74;97103.19;5031754;28;20053;-43
2022/01/25 11:08:18;;;;;;;33.90;15.02;;;;;;;-0.31;94.41;97104.00;4995221;28;20495;-43
2022/01/25 11:10:58;;;;;;;29.95;15.27;;;;;;;0.20;93.42;97105.03;5024906;28;20505;-43
2022/01/25 11:15:57;;;;;;;29.90;14.20;;;;;;;-0.18;93.80;97086.97;5031569;28;20091;-44
2022/01/25 11:18:25;;;;;;;28.98;14.20;;;;;;;0.05;93.25;97083.44;5029287;28;20076;-43
2022/01/25 11:20:55;;;;;;;25.55;13.45;;;;;;;0.32;92.29;97088.19;5029886;28;20430;-44
2022/01/25 11:23:23;;;;;;;27.45;14.60;;;;;;;1.12;90.65;97095.94;5009071;28;20046;-46
2022/01/25 11:25:51;;;;;;;26.15;14.05;;;;;;;1.29;87.09;97073.81;5013951;28;20407;-45
2022/01/25 11:28:18;;;;;;;26.23;14.88;;;;;;;1.91;85.69;97083.44;5031914;28;20077;-43
2022/01/25 11:30:46;;;;;;;29.08;15.23;;;;;;;1.46;86.88;97077.25;5030395;28;20061;-47
2022/01/25 11:33:14;;;;;;;25.05;13.48;;;;;;;1.08;88.05;97078.84;5013534;28;20045;-43
2022/01/25 11:35:42;;;;;;;26.98;14.32;;;;;;;1.72;86.28;97067.72;5030676;28;20060;-44
2022/01/25 11:38:09;;;;;;;26.15;13.00;;;;;;;1.21;86.73;97066.25;5029052;28;20132;-43
2022/01/25 11:40:44;;;;;;;23.15;13.02;;;;;;;2.03;85.37;97063.56;5026555;28;20037;-45
2022/01/25 11:43:14;;;;;;;25.65;12.70;;;;;;;2.47;81.61;97066.19;5008798;28;20511;-45
2022/01/25 11:45:44;;;;;;;22.80;12.10;;;;;;;3.04;78.67;97068.25;5031012;28;20529;-46
2022/01/25 11:48:11;;;;;;;20.70;11.55;;;;;;;2.34;80.80;97063.91;5025234;28;20051;-46
2022/01/25 11:50:42;;;;;;;20.73;11.05;;;;;;;1.82;82.26;97061.69;5026917;28;20479;-48
2022/01/25 11:53:16;;;;;;;20.52;12.10;;;;;;;3.16;82.18;97067.28;5028371;28;20537;-44
2022/01/25 11:55:51;;;;;;;22.67;11.98;;;;;;;4.49;75.30;97062.53;5042738;28;20041;-46
2022/01/25 11:58:30;;;;;;;19.02;11.35;;;;;;;4.09;76.37;97056.00;5035797;28;20124;-44
2022/01/25 12:01:01;;;;;;;22.27;11.60;;;;;;;2.92;77.18;97061.47;5015416;28;20140;-45
2022/01/25 12:03:35;;;;;;;19.65;11.05;;;;;;;4.64;74.05;97055.31;5035899;28;20449;-45
2022/01/25 12:06:20;;;;;;;21.02;11.20;;;;;;;4.66;70.41;97060.41;5031730;28;20046;-45
2022/01/25 12:09:06;;;;;;;21.27;12.57;;;;;;;3.53;76.96;97055.75;5028941;28;20150;-44
2022/01/25 12:11:48;;;;;;;20.10;11.82;;;;;;;3.23;77.17;97054.50;5022454;28;20041;-46
2022/01/25 12:14:33;;;;;;;23.80;12.77;;;;;;;3.16;77.83;97044.03;5034400;28;20124;-46
2022/01/25 12:17:03;;;;;;;20.20;12.30;;;;;;;4.04;74.62;97048.75;5030765;28;20151;-49
2022/01/25 12:19:30;;;;;;;20.77;11.13;;;;;;;4.36;72.29;97048.59;5026060;28;20038;-49
2022/01/25 12:22:02;;;;;;;20.50;11.90;;;;;;;3.66;75.48;97036.53;5025891;28;20056;-46
2022/01/25 12:25:03;;;;;;;21.90;12.57;;;;;;;3.41;77.12;97027.34;5032972;28;20490;-44
2022/01/25 12:28:09;;;;;;;19.25;11.98;;;;;;;4.94;72.40;97026.94;5034058;28;20045;-44
2022/01/25 12:30:39;;;;;;;19.05;11.38;;;;;;;4.44;72.07;97023.13;4982992;28;20136;-44
2022/01/25 12:33:08;;;;;;;20.65;11.57;;;;;;;3.98;74.35;97021.16;5014988;28;20038;-45
2022/01/25 12:35:40;;;;;;;20.77;12.13;;;;;;;4.88;71.13;97026.13;5034157;28;20046;-44
2022/01/25 12:38:15;;;;;;;21.10;12.27;;;;;;;6.17;70.17;97015.84;5015347;28;20083;-46
2022/01/25 12:41:02;;;;;;;19.98;12.15;;;;;;;4.72;68.93;97027.19;5034169;28;20046;-44
2022/01/25 12:43:38;;;;;;;23.20;12.32;;;;;;;4.01;72.56;97025.19;5030209;28;20044;-45
2022/01/25 12:46:10;;;;;;;19.83;12.77;;;;;;;4.81;70.65;97025.59;5034640;28;20072;-46
2022/01/25 12:48:52;;;;;;;23.75;12.38;;;;;;;5.15;70.04;97023.13;4983582;28;20068;-45
2022/01/25 12:51:35;;;;;;;21.25;12.77;;;;;;;4.80;70.53;97023.97;5023360;28;20073;-43
2022/01/25 12:54:05;;;;;;;20.60;13.00;;;;;;;3.49;75.09;97004.63;5031416;28;20046;-44
2022/01/25 12:56:45;;;;;;;24.02;14.70;;;;;;;4.14;74.46;97015.84;5025903;28;20060;-45
2022/01/25 12:59:16;;;;;;;21.55;14.05;;;;;;;3.26;77.33;97001.28;5032712;28;20045;-44
2022/01/25 13:01:45;;;;;;;21.40;13.13;;;;;;;3.06;79.17;97008.41;5027873;28;20121;-45
2022/01/25 13:04:13;;;;;;;23.92;13.43;;;;;;;3.24;78.54;96999.94;5029349;28;20044;-42
2022/01/25 13:06:50;;;;;;;22.13;11.70;;;;;;;2.67;79.82;97000.63;5032979;28;20497;-42
2022/01/25 13:09:28;;;;;;;24.00;13.00;;;;;;;2.66;80.42;97001.66;5025605;28;20053;-41
2022/01/25 13:12:11;;;;;;;26.92;13.93;;;;;;;2.88;80.07;96997.03;5034150;28;20045;-42
2022/01/25 13:14:51;;;;;;;26.15;13.43;;;;;;;2.73;79.88;96991.56;5033362;28;20045;-43